San Juan, PR (00901)

12:24 AM AST on February 06, 2016 (GMT -0400)
Condado | | Change Station
CLOSE
Current Station
Personal Weather Station
Location: San Juan, SAN JUAN
Elevation: 145 ft
Nearby Weather Stations
Active Advisory: Coastal Hazard Statement

Elev 145 ft 18.46 °N, 66.08 °W | Updated 21 minutes ago

Mostly Cloudy
Mostly Cloudy
70.8 °F
Feels Like 70.8 °F
N
2.7
Wind Variable Wind from West

Today
High -- | Low -- °F
--% Chance of Precip.
Yesterday
High -- | Low -- °F
Precip. -- in
Pressure 30.03 in
Visibility 10.0 miles
Clouds Scattered Clouds 10000 ft
Mostly Cloudy 12000 ft
Dew Point 68 °F
Humidity 90%
Rainfall 0.00 in
Snow Depth Not available.
6:56 AM 6:20 PM
Waning Crescent, 7% visible
METAR TJSJ 060356Z 15003KT 10SM SCT100 BKN120 22/21 A3003 RMK AO2 SLP168 T02220206 402830217
Pressure 30.03 in
Visibility 10.0 miles
Clouds Scattered Clouds 10000 ft
Mostly Cloudy 12000 ft
Dew Point 68 °F
Humidity 90%
Rainfall 0.00 in
Snow Depth Not available.
6:56 AM 6:20 PM
Waning Crescent, 7% visible
METAR TJSJ 060356Z 15003KT 10SM SCT100 BKN120 22/21 A3003 RMK AO2 SLP168 T02220206 402830217

10-Day Weather Forecast

Almanac

Astronomy

Feb. 06, 2016 Rise Set
Actual Time
Civil Twilight
Nautical Twilight
Astronomical Twilight
Moon
Length of Visible Light
Length of Day
Tomorrow will be .
, % of the Moon is Illuminated

Today's Extremes

State Highs State Lows

Community

WunderPhotos

Upload Photos

1,890,917 photos uploaded!

WunderBlog® & News

Nearby

Air Quality

  Air Quality AQ Index Pollutant
Not available.

Snow Depth

Station Depth Elevation

Earthquake Activity

City Distance Mag. Time & Date
Minimum magnitude displayed is 2.5.

Coastal Water Temperatures

Place Temperature

Stations

Nearby Weather Stations

Station Location Temp. Windchill Dew Point Humidity Wind Precip. Elev Updated Type
                   

Watches & Warnings

Coastal Hazard Statement
Issued: 10:08 PM AST Feb. 5, 2016 – National Weather Service

... High rip current risk now in effect through Saturday evening...

* location... Atlantic beaches of Puerto Rico... Culebra and
northern U.S. Virgin Islands.

* Timing... through Saturday evening.

* Impacts... dangerous currents making hazardous swimming conditions.

Precautionary/preparedness actions...

There is a high risk of rip currents.

Rip currents are powerful channels of water flowing quickly away
from shore... which occur most often at low spots or breaks in The
Sandbar and in the vicinity of structures such as groins...
jetties and piers. Heed the advice of lifeguards... beach patrol
flags and signs.

If you become caught in a rip current... Yell for help. Remain
calm... do not exhaust yourself and stay afloat while waiting for
help. If you have to swim out of a rip current... swim parallel to
shore and back toward the beach when possible. Do not attempt to
swim directly against a rip current as you will tire quickly.